Beauval, Canada
Current Conditions -  °F | °C
As of 9:00 PM on Wednesday 22 Oct 2014 (Local Time) from CYVT Reporting Station
Few Clouds Few Clouds  
Wind Chill: 42°   Ceiling: Unl
Heat Index: 45°   Visibility: 15mi
Dew Point: 36°   Wind: 5mph
Humidity: 71%   Direction: 200°SSW
Pressure: 29.71"   Gusts: NA
Location:  55.15°N, 107.62°W
Report Text: CYVT 230300Z 20004KT 130V210 15SM FEW220 07/02 A2971 RMK CI1 SLP077
Loading
Personal Weather Stations






























Interactive Weather Map
Tropical Storm Tracking
New forecast layout! Learn more

10-Day Weather Forecast

Advertisements
Track Severe Weather on mobile